Latest Weather Observations for Yarrawonga

IDN60801

Issued at 10:02 pm EDT Saturday 13 February 2016 (issued every 30 minutes, with the page automatically refreshed every 10 minutes)

About weather observations | Map of weather stations | Latest weather observations for NSW | Other Formats
Station Details ID: 081124 Name: YARRAWONGA Lat: -36.03 Lon: 146.03 Height: 128.9 m
Data from the previous 72 hours. | See also: Recent months at Yarrawonga
Date/Time
EDT
Temp
°C
App
Temp
°C
Dew
Point
Rel
Hum
%
Delta-T
°C
Wind Press
QNH
hPa
Press
MSL
hPa
Rain
since 9 am
mm
Dir
 
Spd
km/h
Gust
km/h
Spd
kts
Gust
kts
13/10:00pm 28.9 26.7 6.3 24 12.0 W 7 9 4 5 1007.5 1006.9 0.0
13/09:30pm 29.3 27.2 6.7 24 12.1 W 7 9 4 5 1007.4 1006.8 0.0
13/09:00pm 30.2 27.9 5.5 21 13.1 W 7 9 4 5 1007.2 1006.6 0.0
13/08:30pm 30.5 27.8 5.7 21 13.2 W 9 11 5 6 1007.0 1006.3 0.0
13/08:00pm 31.0 28.0 6.1 21 13.4 WSW 11 13 6 7 1006.7 1006.1 0.0
13/07:30pm 32.5 29.1 5.9 19 14.3 WSW 13 19 7 10 1006.5 1005.9 0.0
13/07:00pm 33.4 29.2 5.9 18 14.9 WSW 17 22 9 12 1006.4 1005.8 0.0
13/06:30pm 33.7 29.4 5.3 17 15.2 SW 17 24 9 13 1006.4 1005.8 0.0
13/06:00pm 34.8 30.1 6.2 17 15.7 WSW 20 24 11 13 1006.4 1005.8 0.0
13/05:30pm 35.9 31.2 6.2 16 16.4 W 20 32 11 17 1006.4 1005.8 0.0
13/05:00pm 36.2 32.5 6.4 16 16.5 WNW 15 22 8 12 1006.4 1005.8 0.0
13/04:30pm 37.6 33.4 7.5 16 17.0 WNW 19 32 10 17 1006.6 1006.0 0.0
13/04:00pm 37.4 33.5 7.3 16 17.0 W 17 24 9 13 1007.0 1006.3 0.0
13/03:30pm 36.2 33.1 7.3 17 16.2 WNW 13 20 7 11 1007.3 1006.7 0.0
13/03:00pm 37.4 34.1 8.2 17 16.7 W 15 22 8 12 1007.6 1007.0 0.0
13/02:30pm 36.6 33.7 6.7 16 16.6 NNW 11 20 6 11 1008.0 1007.4 0.0
13/02:00pm 36.2 32.7 7.3 17 16.2 W 15 22 8 12 1008.5 1007.9 0.0
13/01:30pm 36.6 33.8 8.4 18 16.1 NNW 13 20 7 11 1008.9 1008.3 0.0
13/01:00pm 35.4 32.0 7.5 18 15.7 NNW 15 22 8 12 1009.3 1008.7 0.0
13/12:30pm 35.2 33.1 8.1 19 15.3 WNW 9 19 5 10 1009.8 1009.2 0.0
13/12:00pm 34.1 32.4 10.0 23 14.0 N 9 17 5 9 1010.3 1009.7 0.0
13/11:30am 32.8 31.7 11.9 28 12.4 NNE 9 15 5 8 1010.5 1009.9 0.0
13/11:00am 31.4 30.5 12.7 32 11.2 NNE 9 15 5 8 1010.8 1010.2 0.0
13/10:30am 29.8 28.8 13.5 36 9.8 NNE 11 15 6 8 1010.9 1010.3 0.0
13/10:00am 27.8 26.6 14.1 43 8.2 NNE 13 19 7 10 1011.0 1010.4 0.0
13/09:30am 26.4 25.2 13.9 46 7.4 NE 13 19 7 10 1011.2 1010.6 0.0
13/09:00am 25.4 24.2 15.1 53 6.2 ENE 15 20 8 11 1011.2 1010.6 0.0
13/08:30am 24.2 24.0 15.7 59 5.2 ENE 11 17 6 9 1011.2 1010.6 0.0
13/08:00am 21.2 21.4 14.8 67 3.8 ESE 7 11 4 6 1011.1 1010.5 0.0
13/07:30am 17.6 17.6 14.3 81 1.9 ESE 7 11 4 6 1010.9 1010.3 0.0
13/07:00am 16.1 15.3 13.0 82 1.7 ESE 9 9 5 5 1010.7 1010.1 0.0
13/06:30am 16.2 15.8 13.1 82 1.7 E 7 9 4 5 1010.5 1009.9 0.0
13/06:00am 16.2 15.4 12.9 81 1.8 ESE 9 9 5 5 1010.3 1009.7 0.0
13/05:30am 16.7 15.9 12.8 78 2.2 ESE 9 11 5 6 1010.2 1009.6 0.0
13/05:00am 16.6 15.7 12.6 77 2.2 E 9 11 5 6 1010.1 1009.5 0.0
13/04:30am 17.7 16.9 12.8 73 2.8 E 9 11 5 6 1009.9 1009.3 0.0
13/04:00am 18.4 18.4 12.4 68 3.4 E 4 7 2 4 1010.0 1009.4 0.0
13/03:30am 18.5 17.7 11.6 64 3.8 E 7 9 4 5 1010.1 1009.5 0.0
13/03:00am 18.4 18.0 11.2 63 3.9 E 4 6 2 3 1010.3 1009.7 0.0
13/02:30am 19.2 18.2 11.0 59 4.5 E 7 9 4 5 1010.5 1009.9 0.0
13/02:00am 18.7 18.1 10.5 59 4.4 E 4 4 2 2 1010.6 1010.0 0.0
13/01:30am 19.7 19.9 10.4 55 5.0 CALM 0 0 0 0 1010.8 1010.2 0.0
13/01:00am 19.1 19.7 13.1 68 3.4 E 2 4 1 2 1011.0 1010.4 0.0
13/12:30am 20.6 21.4 12.6 60 4.5 CALM 0 0 0 0 1011.0 1010.4 0.0
13/12:00am 21.1 21.5 11.2 53 5.5 CALM 0 0 0 0 1011.2 1010.6 0.0
 
Date/Time
EDT
Temp
°C
App
Temp
°C
Dew
Point
Rel
Hum
%
Delta-T
°C
Wind Press
QNH
hPa
Press
MSL
hPa
Rain
since 9 am
mm
Dir
 
Spd
km/h
Gust
km/h
Spd
kts
Gust
kts
12/11:30pm 20.2 19.4 10.9 55 5.1 SE 6 13 3 7 1011.2 1010.6 0.0
12/11:00pm 22.6 22.3 11.4 49 6.3 SW 4 4 2 2 1011.2 1010.6 0.0
12/10:30pm 23.1 23.2 11.5 48 6.5 WSW 2 4 1 2 1011.3 1010.7 0.0
12/10:00pm 23.7 23.6 9.3 40 7.8 CALM 0 0 0 0 1011.3 1010.7 0.0
12/09:30pm 24.1 23.8 8.5 37 8.4 CALM 0 0 0 0 1011.2 1010.6 0.0
12/09:00pm 25.9 25.5 8.4 33 9.5 CALM 0 0 0 0 1011.0 1010.4 0.0
12/08:30pm 28.6 27.3 9.3 30 10.8 SW 6 7 3 4 1011.0 1010.4 0.0
12/08:00pm 30.9 29.4 8.6 25 12.5 WSW 6 9 3 5 1010.6 1010.0 0.0
12/07:30pm 33.0 30.4 7.8 21 14.0 WSW 11 13 6 7 1010.5 1009.9 0.0
12/07:00pm 33.8 31.4 7.0 19 14.8 W 9 22 5 12 1010.4 1009.8 0.0
12/06:30pm 34.2 31.7 6.5 18 15.2 WSW 9 15 5 8 1010.4 1009.8 0.0
12/06:00pm 34.3 31.4 6.6 18 15.2 WSW 11 22 6 12 1010.4 1009.8 0.0
12/05:30pm 33.9 31.7 6.3 18 15.1 NNW 7 17 4 9 1010.5 1009.9 0.0
12/05:00pm 34.1 31.9 6.4 18 15.2 NNW 7 19 4 10 1010.6 1010.0 0.0
12/04:30pm 34.7 32.6 8.4 20 14.9 WNW 9 17 5 9 1010.8 1010.2 0.0
12/04:00pm 33.6 31.5 8.3 21 14.2 WSW 9 17 5 9 1011.2 1010.6 0.0
12/03:30pm 34.1 30.4 6.4 18 15.2 SW 15 20 8 11 1011.4 1010.8 0.0
12/03:00pm 33.5 32.2 11.4 26 13.0 N 9 15 5 8 1011.9 1011.3 0.0
12/02:30pm 34.2 33.9 11.4 25 13.5 S 4 17 2 9 1012.2 1011.6 0.0
12/02:00pm 33.6 33.8 14.1 30 12.0 W 6 13 3 7 1012.7 1012.1 0.0
12/01:30pm 31.5 31.7 14.2 35 10.6 NE 6 11 3 6 1013.1 1012.5 0.0
12/01:00pm 32.0 33.2 15.9 38 10.1 NW 4 7 2 4 1013.5 1012.9 0.0
12/12:30pm 30.2 30.4 14.7 39 9.5 NNE 7 13 4 7 1013.8 1013.2 0.0
12/12:00pm 30.4 31.1 15.7 41 9.1 ENE 6 15 3 8 1014.2 1013.7 0.0
12/11:30am 29.9 31.0 16.7 45 8.3 E 6 13 3 7 1014.4 1013.9 0.0
12/11:00am 28.0 29.6 16.9 51 7.0 E 4 9 2 5 1014.6 1014.1 0.0
12/10:30am 26.7 27.7 16.9 55 6.1 NE 7 13 4 7 1014.7 1014.2 0.0
12/10:00am 26.0 26.0 17.1 58 5.6 ENE 13 20 7 11 1014.8 1014.3 0.0
12/09:30am 25.8 26.8 16.9 58 5.5 E 7 13 4 7 1015.1 1014.5 0.0
12/09:00am 24.1 25.0 16.1 61 4.9 ESE 6 11 3 6 1015.2 1014.6 0.0
12/08:30am 21.2 22.2 15.3 69 3.5 SSE 4 7 2 4 1015.0 1014.4 0.0
12/08:00am 17.9 18.5 14.2 79 2.1 S 4 6 2 3 1014.7 1014.2 0.0
12/07:30am 16.7 17.3 14.2 85 1.4 S 4 6 2 3 1014.3 1013.8 0.0
12/07:00am 15.5 15.7 13.2 86 1.3 SSE 4 6 2 3 1013.9 1013.4 0.0
12/06:30am 14.8 15.3 12.7 87 1.2 SW 2 2 1 1 1013.5 1012.9 0.0
12/06:00am 15.3 15.8 12.8 85 1.4 SW 2 6 1 3 1013.1 1012.5 0.0
12/05:30am 15.8 15.7 13.3 85 1.4 WSW 6 7 3 4 1013.0 1012.4 0.0
12/05:00am 15.7 15.7 12.5 81 1.8 SW 4 6 2 3 1012.8 1012.2 0.0
12/04:30am 16.1 15.6 12.8 81 1.8 SW 7 9 4 5 1012.7 1012.1 0.0
12/04:00am 16.5 16.2 12.8 79 2.1 WSW 6 7 3 4 1012.7 1012.1 0.0
12/03:30am 17.3 17.0 12.8 75 2.5 WSW 6 9 3 5 1012.9 1012.3 0.0
12/03:00am 18.3 17.7 11.8 66 3.6 W 6 7 3 4 1013.1 1012.5 0.0
12/02:30am 18.1 18.2 11.4 65 3.7 SW 2 6 1 3 1013.3 1012.7 0.0
12/02:00am 18.9 17.1 11.0 60 4.3 WSW 11 13 6 7 1012.9 1012.3 0.0
12/01:30am 19.2 18.1 9.9 55 5.0 SW 6 6 3 3 1013.1 1012.5 0.0
12/01:00am 19.7 17.6 9.9 53 5.3 SW 11 13 6 7 1013.1 1012.5 0.0
12/12:30am 20.5 19.0 9.1 48 6.1 SW 7 9 4 5 1013.1 1012.5 0.0
12/12:00am 22.3 20.5 8.1 40 7.5 S 7 9 4 5 1013.1 1012.5 0.0
 
Date/Time
EDT
Temp
°C
App
Temp
°C
Dew
Point
Rel
Hum
%
Delta-T
°C
Wind Press
QNH
hPa
Press
MSL
hPa
Rain
since 9 am
mm
Dir
 
Spd
km/h
Gust
km/h
Spd
kts
Gust
kts
11/11:30pm 24.2 20.6 6.9 33 9.0 SSW 15 22 8 12 1013.2 1012.6 0.0
11/11:00pm 24.5 20.1 4.8 28 9.9 SSW 17 24 9 13 1013.2 1012.6 0.0
11/10:30pm 24.5 20.2 5.3 29 9.8 SSW 17 20 9 11 1013.0 1012.4 0.0
11/10:00pm 25.8 21.0 4.9 26 10.6 SSW 19 22 10 12 1012.6 1012.0 0.0
11/09:30pm 27.2 23.5 4.3 23 11.6 S 13 22 7 12 1012.3 1011.7 0.0
11/09:00pm 27.2 24.2 6.0 26 11.1 S 11 15 6 8 1012.0 1011.4 0.0
11/08:30pm 29.1 25.6 7.1 25 11.9 SSW 15 20 8 11 1011.5 1010.9 0.0
11/08:00pm 31.0 26.3 6.1 21 13.4 SSW 20 28 11 15 1011.0 1010.4 0.0
11/07:30pm 32.2 27.6 6.4 20 14.0 SW 20 28 11 15 1010.7 1010.1 0.0
11/07:00pm 33.2 28.8 7.2 20 14.4 S 20 28 11 15 1010.4 1009.8 0.0
11/06:30pm 33.7 29.9 7.6 20 14.5 SSW 17 24 9 13 1010.2 1009.6 0.0
11/06:00pm 32.8 27.5 6.9 20 14.2 SSW 24 32 13 17 1010.2 1009.6 0.0
11/05:30pm 34.3 29.7 6.6 18 15.2 SSW 20 28 11 15 1010.1 1009.5 0.0
11/05:00pm 32.8 29.2 6.9 20 14.2 SW 15 20 8 11 1010.2 1009.6 0.0
11/04:30pm 33.6 30.0 6.8 19 14.7 SW 15 28 8 15 1010.3 1009.7 0.0
11/04:00pm 34.5 30.9 8.3 20 14.8 SW 17 26 9 14 1010.6 1010.0 0.0
11/03:30pm 35.3 33.2 8.2 19 15.3 SW 9 15 5 8 1010.7 1010.1 0.0
11/03:00pm 33.9 31.7 7.8 20 14.6 SW 9 15 5 8 1011.0 1010.4 0.0
11/02:30pm 33.8 32.5 9.8 23 13.8 W 7 19 4 10 1011.4 1010.8 0.0
11/02:00pm 33.3 31.6 10.0 24 13.4 W 9 17 5 9 1011.8 1011.2 0.0
11/01:30pm 32.7 32.0 11.3 27 12.6 W 6 15 3 8 1012.1 1011.5 0.0
11/01:00pm 32.6 32.3 12.8 30 11.9 SE 6 13 3 7 1012.5 1011.9 0.0
11/12:30pm 31.2 30.3 12.5 31 11.1 WNW 9 15 5 8 1012.9 1012.3 0.0
11/12:00pm 30.4 30.9 12.8 34 10.5 SSW 2 6 1 3 1013.3 1012.7 0.0
11/11:30am 29.4 29.5 12.8 36 9.8 SW 4 9 2 5 1013.5 1012.9 0.0
11/11:00am 28.5 28.9 13.6 40 8.9 SSW 4 9 2 5 1013.7 1013.1 0.0
11/10:30am 26.8 26.7 13.2 43 8.0 SW 6 7 3 4 1013.7 1013.1 0.0
11/10:00am 25.4 24.8 12.3 44 7.6 SW 7 11 4 6 1013.6 1013.0 0.0
11/09:30am 23.8 23.6 11.8 47 6.8 SW 4 7 2 4 1013.8 1013.2 0.0
11/09:00am 22.1 21.3 11.2 50 6.1 SW 6 9 3 5 1013.7 1013.1 0.0
11/08:30am 20.1 18.8 11.3 57 4.9 SW 9 11 5 6 1013.5 1012.9 0.0
11/08:00am 18.4 17.1 11.2 63 3.9 WSW 9 13 5 7 1013.1 1012.5 0.0
11/07:30am 16.5 15.2 11.4 72 2.8 WSW 9 11 5 6 1012.7 1012.1 0.0
11/07:00am 15.3 14.3 11.1 76 2.3 WSW 7 7 4 4 1012.3 1011.7 0.0
11/06:30am 15.5 14.1 10.9 74 2.5 SW 9 11 5 6 1011.9 1011.3 0.0
11/06:00am 16.1 14.3 10.8 71 2.8 WSW 11 11 6 6 1011.6 1011.0 0.0
11/05:30am 16.0 15.2 11.0 72 2.7 WSW 6 7 3 4 1011.4 1010.8 0.0
11/05:00am 16.8 15.1 11.1 69 3.1 SW 11 13 6 7 1011.2 1010.6 0.0
11/04:30am 16.7 15.3 11.0 69 3.1 SW 9 9 5 5 1011.0 1010.4 0.0
11/04:00am 17.4 15.6 11.0 66 3.5 SW 11 13 6 7 1010.9 1010.3 0.0
11/03:30am 17.4 16.1 11.2 67 3.4 SW 9 13 5 7 1011.0 1010.4 0.0
11/03:00am 17.8 16.7 11.8 68 3.3 SW 9 11 5 6 1011.2 1010.6 0.0
11/02:30am 17.9 16.5 12.1 69 3.2 SW 11 13 6 7 1011.2 1010.6 0.0
11/02:00am 17.9 16.8 12.1 69 3.2 WSW 9 11 5 6 1011.4 1010.8 0.0
11/01:30am 17.8 16.3 11.8 68 3.3 SW 11 13 6 7 1011.5 1010.9 0.0
11/01:00am 17.9 16.5 10.8 63 3.8 WSW 9 11 5 6 1011.7 1011.1 0.0
11/12:30am 19.4 17.0 10.1 55 5.0 WSW 13 15 7 8 1011.9 1011.3 0.0
11/12:00am 19.5 17.7 9.4 52 5.4 WSW 9 11 5 6 1012.0 1011.4 0.0
 
Date/Time
EDT
Temp
°C
App
Temp
°C
Dew
Point
Rel
Hum
%
Delta-T
°C
Wind Press
QNH
hPa
Press
MSL
hPa
Rain
since 9 am
mm
Dir
 
Spd
km/h
Gust
km/h
Spd
kts
Gust
kts
10/11:30pm 20.3 18.3 8.6 47 6.2 WSW 9 9 5 5 1012.0 1011.4 0.0
10/11:00pm 20.3 18.1 8.0 45 6.4 SW 9 11 5 6 1012.1 1011.5 0.0
10/10:30pm 21.5 18.2 6.6 38 7.6 SW 13 15 7 8 1012.1 1011.5 0.0

Other Formats:

Comma delimited format used in spreadsheet applications
http://www.bom.gov.au/fwo/IDN60801/IDN60801.94862.axf

JavaScript Object Notation format (JSON) in row-major order
http://www.bom.gov.au/fwo/IDN60801/IDN60801.94862.json